^^
Saratoga-Weather Station Historical Data
Daily Summary for April 5, 2021 Units:  English    Metric   Both
Daily Weekly Monthly Yearly Custom
  High: Low: Average:
Temperature: 65.8 °F 58.8 °F 62.1 °F
Dew Point: 62.2 °F 55.9 °F 59.5 °F
Humidity: 96% 83% 91%
Wind Speed: 15mph 0mph 3.2mph
Wind Gust: 16mph - -
Wind- - West
Pressure: 30.2 in 30.1 in -
Precipitation: 0.08 in    
Historical Graphs
 
 
Tabular Data for April 5, 2021
Time Temperature Dew Point Pressure Wind Wind Speed Wind Gust Humidity Rainfall Rate (Hourly) solar
00:04 62.4 °F 61.3 °F 30.1 in West 0.9 mph 6 mph 96% 0 in 0 W/m2
00:09 62.4 °F 61.3 °F 30.1 in West 0.9 mph 4 mph 96% 0 in 0 W/m2
00:14 62.4 °F 61 °F 30.1 in WNW 4.9 mph 7 mph 95% 0 in 0 W/m2
00:19 62.2 °F 60.8 °F 30.1 in WNW 2 mph 4 mph 95% 0 in 0 W/m2
00:24 62.1 °F 60.6 °F 30.1 in WNW 2 mph 4 mph 95% 0 in 0 W/m2
00:29 62.1 °F 60.6 °F 30.1 in WNW 2 mph 4 mph 95% 0 in 0 W/m2
00:34 61.9 °F 60.4 °F 30.1 in WNW 2 mph 5 mph 95% 0 in 0 W/m2
00:39 61.9 °F 60.8 °F 30.1 in WNW 0.9 mph 4 mph 96% 0 in 0 W/m2
00:44 61.9 °F 60.8 °F 30.1 in NW 0.9 mph 3 mph 96% 0 in 0 W/m2
00:49 61.7 °F 60.6 °F 30.1 in WNW 0.9 mph 2 mph 96% 0 in 0 W/m2
00:54 61.7 °F 60.6 °F 30.1 in WNW 0.9 mph 2 mph 96% 0 in 0 W/m2
00:59 61.5 °F 60.4 °F 30.1 in Calm     96% 0 in 0 W/m2
01:04 61.3 °F 60.3 °F 30.1 in Calm   2 mph 96% 0 in 0 W/m2
01:09 61.3 °F 60.3 °F 30.1 in Calm     96% 0 in 0 W/m2
01:14 61.2 °F 60.1 °F 30.1 in Calm   2 mph 96% 0 in 0 W/m2
01:19 61.2 °F 60.1 °F 30.1 in Calm   1 mph 96% 0 in 0 W/m2
01:24 61.2 °F 60.1 °F 30.1 in Calm   1 mph 96% 0 in 0 W/m2
01:29 61.2 °F 60.1 °F 30.1 in Calm     96% 0 in 0 W/m2
01:34 61.2 °F 60.1 °F 30.1 in WNW 2 mph 2 mph 96% 0 in 0 W/m2
01:39 61.3 °F 60.3 °F 30.1 in WSW 4 mph 4 mph 96% 0 in 0 W/m2
01:44 61.5 °F 60.4 °F 30.1 in WNW 2 mph 4 mph 96% 0 in 0 W/m2
01:49 61.7 °F 60.6 °F 30.1 in Calm   1 mph 96% 0 in 0 W/m2
01:54 61.7 °F 60.6 °F 30.1 in WNW 0.9 mph 4 mph 96% 0 in 0 W/m2
01:59 61.5 °F 60.4 °F 30.1 in Calm   1 mph 96% 0 in 0 W/m2
02:04 61.3 °F 60.3 °F 30.1 in WNW 0.9 mph 1 mph 96% 0 in 0 W/m2
02:09 61.3 °F 60.3 °F 30.1 in Calm     96% 0 in 0 W/m2
02:14 61.3 °F 60.3 °F 30.1 in Calm     96% 0 in 0 W/m2
02:19 61.3 °F 60.3 °F 30.1 in Calm     96% 0 in 0 W/m2
02:24 61.3 °F 60.3 °F 30.1 in Calm     96% 0 in 0 W/m2
02:29 61.3 °F 60.3 °F 30.1 in West 2.9 mph 3 mph 96% 0 in 0 W/m2
02:34 61.3 °F 60.3 °F 30.1 in SW 2.9 mph 3 mph 96% 0 in 0 W/m2
02:39 61.5 °F 60.4 °F 30.1 in Calm   3 mph 96% 0 in 0 W/m2
02:44 61.7 °F 60.6 °F 30.1 in WSW 0.9 mph 2 mph 96% 0 in 0 W/m2
02:49 61.7 °F 60.6 °F 30.1 in Calm   4 mph 96% 0 in 0 W/m2
02:54 61.9 °F 60.8 °F 30.1 in Calm   1 mph 96% 0 in 0 W/m2
02:59 61.9 °F 60.8 °F 30.1 in Calm   3 mph 96% 0 in 0 W/m2
03:04 61.9 °F 60.8 °F 30.1 in ENE 0.9 mph 1 mph 96% 0 in 0 W/m2
03:09 61.9 °F 60.8 °F 30.1 in NNW 0.9 mph 3 mph 96% 0 in 0 W/m2
03:14 62.1 °F 61 °F 30.1 in Calm   2 mph 96% 0 in 0 W/m2
03:19 62.1 °F 61 °F 30.1 in Calm   3 mph 96% 0 in 0 W/m2
03:24 61.9 °F 60.8 °F 30.1 in SW 2 mph 3 mph 96% 0 in 0 W/m2
03:29 61.9 °F 60.8 °F 30.1 in West 2.9 mph 3 mph 96% 0 in 0 W/m2
03:34 61.9 °F 60.8 °F 30.1 in West 2.9 mph 3 mph 96% 0 in 0 W/m2
03:39 62.1 °F 61 °F 30.1 in West 2 mph 6 mph 96% 0 in 0 W/m2
03:44 62.1 °F 61 °F 30.1 in WNW 2 mph 3 mph 96% 0 in 0 W/m2
03:49 62.1 °F 60.6 °F 30.1 in NW 2.9 mph 5 mph 95% 0 in 0 W/m2
03:54 62.1 °F 60.6 °F 30.1 in WSW 0.9 mph 2 mph 95% 0 in 0 W/m2
03:59 61.9 °F 60.4 °F 30.1 in WNW 0.9 mph 4 mph 95% 0 in 0 W/m2
04:04 61.9 °F 60.4 °F 30.1 in WNW 0.9 mph 1 mph 95% 0 in 0 W/m2
04:09 61.9 °F 60.4 °F 30.1 in Calm   1 mph 95% 0 in 0 W/m2
04:14 61.9 °F 60.4 °F 30.1 in Calm   1 mph 95% 0 in 0 W/m2
04:19 61.9 °F 60.4 °F 30.1 in WNW 2 mph 2 mph 95% 0 in 0 W/m2
04:24 61.9 °F 60.4 °F 30.1 in WNW 0.9 mph 1 mph 95% 0 in 0 W/m2
04:29 61.9 °F 60.4 °F 30.1 in West 0.9 mph 3 mph 95% 0 in 0 W/m2
04:34 61.9 °F 60.4 °F 30.1 in WNW 2 mph 6 mph 95% 0 in 0 W/m2
04:40 61.7 °F 60.3 °F 30.1 in NW 4 mph 5 mph 95% 0 in 0 W/m2
04:45 61.5 °F 60.1 °F 30.1 in WNW 2.9 mph 4 mph 95% 0 in 0 W/m2
04:50 61.5 °F 60.1 °F 30.1 in WNW 0.9 mph 4 mph 95% 0 in 0 W/m2
04:55 61.5 °F 60.1 °F 30.1 in West 2 mph 2 mph 95% 0 in 0 W/m2
05:00 61.5 °F 60.1 °F 30.1 in Calm   2 mph 95% 0 in 0 W/m2
05:05 61.5 °F 60.1 °F 30.1 in Calm     95% 0 in 0 W/m2
05:10 61.5 °F 60.1 °F 30.1 in Calm     95% 0 in 0 W/m2
05:15 61.5 °F 60.1 °F 30.1 in WSW 2 mph 3 mph 95% 0 in 0 W/m2
05:20 61.3 °F 59.9 °F 30.1 in Calm   1 mph 95% 0 in 0 W/m2
05:25 61.3 °F 59.9 °F 30.1 in Calm     95% 0 in 0 W/m2
05:30 61.3 °F 59.9 °F 30.1 in Calm     95% 0 in 0 W/m2
05:35 61.3 °F 59.9 °F 30.1 in WSW 2.9 mph 4 mph 95% 0 in 0 W/m2
05:40 61.3 °F 59.9 °F 30.1 in West 2 mph 3 mph 95% 0 in 0 W/m2
05:45 61.5 °F 60.1 °F 30.1 in West 2 mph 3 mph 95% 0 in 0 W/m2
05:50 61.3 °F 59.9 °F 30.1 in West 2 mph 3 mph 95% 0 in 0 W/m2
05:55 61.5 °F 60.1 °F 30.1 in West 0.9 mph 2 mph 95% 0 in 0 W/m2
06:00 61.5 °F 60.1 °F 30.1 in WSW 0.9 mph 1 mph 95% 0 in 7 W/m2
06:05 61.5 °F 60.1 °F 30.1 in WSW 0.9 mph 2 mph 95% 0 in 9 W/m2
06:10 61.5 °F 60.1 °F 30.1 in Calm   3 mph 95% 0 in 12 W/m2
06:15 61.5 °F 60.1 °F 30.1 in WSW 0.9 mph 2 mph 95% 0 in 18 W/m2
06:20 61.5 °F 60.1 °F 30.1 in West 0.9 mph 3 mph 95% 0 in 21 W/m2
06:25 61.5 °F 60.1 °F 30.1 in West 2.9 mph 4 mph 95% 0 in 21 W/m2
06:30 61.5 °F 60.1 °F 30.1 in WSW 2 mph 3 mph 95% 0 in 21 W/m2
06:35 61.5 °F 60.1 °F 30.1 in West 2 mph 4 mph 95% 0 in 19 W/m2
06:40 61.7 °F 60.3 °F 30.1 in West 2 mph 2 mph 95% 0 in 16 W/m2
06:45 61.9 °F 60.1 °F 30.1 in WSW 2.9 mph 4 mph 94% 0 in 12 W/m2
06:50 61.9 °F 60.1 °F 30.1 in West 2 mph 3 mph 94% 0 in 14 W/m2
06:55 61.9 °F 60.1 °F 30.1 in West 2 mph 5 mph 94% 0 in 12 W/m2
07:00 61.9 °F 60.1 °F 30.1 in West 2 mph 3 mph 94% 0 in 11 W/m2
07:05 61.9 °F 60.1 °F 30.1 in WNW 0.9 mph 5 mph 94% 0 in 11 W/m2
07:10 61.9 °F 60.1 °F 30.1 in WNW 0.9 mph 3 mph 94% 0.01 in 14 W/m2
07:15 61.9 °F 60.1 °F 30.1 in WNW 0.9 mph 2 mph 94% 0.01 in 16 W/m2
07:20 61.9 °F 60.1 °F 30.1 in WSW 2 mph 2 mph 94% 0.02 in 25 W/m2
07:25 61.7 °F 59.9 °F 30.1 in West 2 mph 4 mph 94% 0.02 in 26 W/m2
07:30 61.7 °F 60.3 °F 30.1 in West 0.9 mph 1 mph 95% 0.03 in 32 W/m2
07:35 61.7 °F 60.3 °F 30.1 in Calm   4 mph 95% 0.04 in 26 W/m2
07:40 61.5 °F 60.1 °F 30.1 in SW 0.9 mph 2 mph 95% 0.05 in 28 W/m2
07:45 61.7 °F 60.3 °F 30.1 in SW 0.9 mph 2 mph 95% 0.05 in 33 W/m2
07:50 61.5 °F 60.1 °F 30.1 in West 0.9 mph 2 mph 95% 0.05 in 42 W/m2
07:55 61.7 °F 60.3 °F 30.1 in West 2.9 mph 3 mph 95% 0.05 in 49 W/m2
08:00 61.9 °F 60.4 °F 30.1 in West 0.9 mph 2 mph 95% 0.06 in 62 W/m2
08:05 61.9 °F 60.4 °F 30.1 in West 2 mph 2 mph 95% 0.07 in 77 W/m2
08:10 61.9 °F 60.4 °F 30.1 in West 2 mph 2 mph 95% 0.06 in 98 W/m2
08:15 61.9 °F 60.4 °F 30.1 in WNW 2 mph 3 mph 95% 0.06 in 98 W/m2
08:20 62.1 °F 60.6 °F 30.1 in WNW 2 mph 2 mph 95% 0.06 in 93 W/m2
08:25 62.1 °F 60.6 °F 30.1 in West 2 mph 4 mph 95% 0.05 in 104 W/m2
08:30 62.1 °F 60.6 °F 30.1 in WNW 2 mph 4 mph 95% 0.03 in 114 W/m2
08:35 62.1 °F 60.6 °F 30.1 in WSW 2.9 mph 3 mph 95% 0.03 in 120 W/m2
08:40 62.2 °F 60.8 °F 30.1 in WSW 0.9 mph 2 mph 95% 0.02 in 125 W/m2
08:45 62.2 °F 60.8 °F 30.1 in WNW 0.9 mph 3 mph 95% 0.02 in 116 W/m2
08:50 62.4 °F 61 °F 30.1 in WNW 0.9 mph 2 mph 95% 0.02 in 91 W/m2
08:55 62.6 °F 61.2 °F 30.1 in WNW 0.9 mph 1 mph 95% 0.02 in 76 W/m2
09:01 62.8 °F 61.3 °F 30.1 in West 0.9 mph 2 mph 95% 0.01 in 81 W/m2
09:06 62.8 °F 61 °F 30.1 in West 2 mph 3 mph 94% 0 in 98 W/m2
09:11 62.8 °F 61 °F 30.1 in Calm   2 mph 94% 0 in 95 W/m2
09:16 63 °F 61.5 °F 30.1 in WNW 2 mph 2 mph 95% 0 in 111 W/m2
09:21 63 °F 61.5 °F 30.1 in WNW 2 mph 3 mph 95% 0.01 in 120 W/m2
09:26 63 °F 61.2 °F 30.1 in WNW 0.9 mph 2 mph 94% 0.01 in 142 W/m2
09:31 63.1 °F 61.3 °F 30.1 in Calm   1 mph 94% 0.01 in 111 W/m2
09:36 63.3 °F 61.5 °F 30.1 in West 0.9 mph 4 mph 94% 0.01 in 118 W/m2
09:41 63.3 °F 61.5 °F 30.1 in WSW 2 mph 4 mph 94% 0.01 in 72 W/m2
09:46 63.3 °F 61.5 °F 30.1 in WNW 2 mph 6 mph 94% 0.01 in 83 W/m2
09:51 63.3 °F 61.3 °F 30.1 in NW 2 mph 3 mph 93% 0.01 in 77 W/m2
09:56 63.7 °F 61.7 °F 30.1 in West 2 mph 6 mph 93% 0.01 in 100 W/m2
10:01 63.7 °F 61.7 °F 30.1 in West 0.9 mph 3 mph 93% 0.01 in 118 W/m2
10:06 63.9 °F 61.9 °F 30.1 in West 0.9 mph 5 mph 93% 0.01 in 137 W/m2
10:11 63.9 °F 61.9 °F 30.1 in WSW 2.9 mph 3 mph 93% 0.01 in 102 W/m2
10:16 64 °F 61.7 °F 30.1 in WNW 2 mph 3 mph 92% 0.01 in 102 W/m2
10:21 64.2 °F 62.2 °F 30.1 in WNW 0.9 mph 3 mph 93% 0 in 142 W/m2
10:26 64.2 °F 61.9 °F 30.1 in WNW 2.9 mph 5 mph 92% 0 in 139 W/m2
10:31 64 °F 61.7 °F 30.1 in West 2 mph 3 mph 92% 0 in 121 W/m2
10:36 64.2 °F 61.9 °F 30.1 in WNW 0.9 mph 3 mph 92% 0 in 137 W/m2
10:41 64.2 °F 61.9 °F 30.1 in West 2 mph 6 mph 92% 0 in 156 W/m2
10:46 64.2 °F 61.9 °F 30.1 in West 6.9 mph 7 mph 92% 0 in 156 W/m2
10:51 64.2 °F 61.9 °F 30.1 in West 2 mph 4 mph 92% 0 in 163 W/m2
10:56 64.2 °F 61.9 °F 30.1 in WSW 4 mph 7 mph 92% 0 in 183 W/m2
11:01 64.2 °F 61.9 °F 30.1 in West 6 mph 6 mph 92% 0 in 162 W/m2
11:06 64.2 °F 61.9 °F 30.1 in WSW 4 mph 5 mph 92% 0 in 128 W/m2
11:11 64.2 °F 61.5 °F 30.1 in WNW 2 mph 6 mph 91% 0 in 141 W/m2
11:16 64 °F 61.3 °F 30.1 in West 4 mph 6 mph 91% 0 in 156 W/m2
11:21 64 °F 61.7 °F 30.1 in West 4 mph 6 mph 92% 0 in 193 W/m2
11:26 64 °F 61.3 °F 30.1 in West 6.9 mph 9 mph 91% 0 in 199 W/m2
11:31 64 °F 61.3 °F 30.1 in WNW 4 mph 5 mph 91% 0 in 146 W/m2
11:36 64 °F 61.3 °F 30.1 in West 6.9 mph 9 mph 91% 0 in 155 W/m2
11:41 64 °F 61.3 °F 30.1 in West 4 mph 5 mph 91% 0 in 125 W/m2
11:46 63.9 °F 61.2 °F 30.1 in WNW 2 mph 7 mph 91% 0 in 100 W/m2
11:51 63.7 °F 61 °F 30.1 in West 2.9 mph 7 mph 91% 0 in 98 W/m2
11:56 63.7 °F 61 °F 30.1 in WNW 4.9 mph 9 mph 91% 0 in 81 W/m2
12:01 63.3 °F 60.6 °F 30.1 in WNW 6.9 mph 7 mph 91% 0 in 69 W/m2
12:06 63.1 °F 60.4 °F 30.1 in West 2.9 mph 10 mph 91% 0 in 72 W/m2
12:11 63.1 °F 60.8 °F 30.1 in WNW 2.9 mph 5 mph 92% 0 in 81 W/m2
12:16 63.1 °F 60.8 °F 30.1 in NW 2.9 mph 4 mph 92% 0 in 86 W/m2
12:21 63.1 °F 60.8 °F 30.1 in WSW 4 mph 11 mph 92% 0 in 91 W/m2
12:26 63.1 °F 60.8 °F 30.1 in WNW 4 mph 9 mph 92% 0 in 79 W/m2
12:31 63.1 °F 60.8 °F 30.1 in WNW 2 mph 11 mph 92% 0 in 86 W/m2
12:36 63 °F 60.6 °F 30.1 in West 2.9 mph 4 mph 92% 0 in 100 W/m2
12:41 63.1 °F 61.2 °F 30.1 in West 2 mph 3 mph 93% 0 in 125 W/m2
12:46 63.1 °F 61.2 °F 30.1 in SW 2.9 mph 4 mph 93% 0 in 120 W/m2
12:51 63.3 °F 61.3 °F 30.1 in West 6 mph 7 mph 93% 0 in 100 W/m2
12:56 63.3 °F 61.3 °F 30.1 in West 4 mph 7 mph 93% 0 in 118 W/m2
13:01 63.3 °F 61 °F 30.1 in West 6 mph 6 mph 92% 0 in 144 W/m2
13:06 63.3 °F 61.3 °F 30.1 in West 4 mph 4 mph 93% 0 in 186 W/m2
13:11 63.7 °F 61.7 °F 30.1 in West 4 mph 4 mph 93% 0 in 167 W/m2
13:16 63.7 °F 61.3 °F 30.1 in WNW 4 mph 6 mph 92% 0 in 135 W/m2
13:21 63.7 °F 61.7 °F 30.1 in West 4 mph 4 mph 93% 0 in 116 W/m2
13:26 63.7 °F 61.7 °F 30.1 in West 6 mph 6 mph 93% 0 in 160 W/m2
13:31 63.9 °F 61.9 °F 30.1 in WNW 2 mph 7 mph 93% 0 in 188 W/m2
13:36 64 °F 61.7 °F 30.1 in WNW 4 mph 7 mph 92% 0 in 218 W/m2
13:41 64.2 °F 61.5 °F 30.1 in West 6.9 mph 10 mph 91% 0 in 251 W/m2
13:46 64.8 °F 61.7 °F 30.1 in WNW 2 mph 3 mph 90% 0 in 299 W/m2
13:52 65.1 °F 61.5 °F 30.1 in WNW 6 mph 10 mph 88% 0 in 297 W/m2
13:57 65.5 °F 61.5 °F 30.1 in WNW 2 mph 10 mph 87% 0 in 323 W/m2
14:02 65.5 °F 61.2 °F 30.1 in WNW 6.9 mph 12 mph 86% 0 in 367 W/m2
14:07 65.5 °F 61.2 °F 30.1 in WNW 4.9 mph 12 mph 86% 0 in 425 W/m2
14:12 65.7 °F 61.7 °F 30.1 in West 6 mph 9 mph 87% 0 in 482 W/m2
14:17 65.8 °F 61.2 °F 30.1 in WNW 8.1 mph 14 mph 85% 0 in 668 W/m2
14:22 65.8 °F 61.2 °F 30.1 in West 4 mph 8 mph 85% 0 in 359 W/m2
14:27 65.7 °F 60.6 °F 30.1 in West 6 mph 10 mph 84% 0 in 380 W/m2
14:32 65.7 °F 60.6 °F 30.1 in WNW 4.9 mph 14 mph 84% 0 in 396 W/m2
14:37 65.7 °F 61 °F 30.1 in WSW 12.1 mph 12 mph 85% 0 in 374 W/m2
14:42 65.5 °F 60.4 °F 30.1 in West 2.9 mph 8 mph 84% 0 in 359 W/m2
14:47 65.5 °F 60.4 °F 30.1 in West 2.9 mph 12 mph 84% 0 in 367 W/m2
14:52 65.1 °F 60.1 °F 30.1 in WNW 13 mph 13 mph 84% 0 in 369 W/m2
14:57 65.1 °F 60.4 °F 30.1 in WNW 6.9 mph 8 mph 85% 0 in 362 W/m2
15:02 64.8 °F 60.1 °F 30.1 in WSW 4 mph 8 mph 85% 0 in 309 W/m2
15:07 64.8 °F 60.4 °F 30.1 in NNW 10.1 mph 15 mph 86% 0 in 299 W/m2
15:12 64.4 °F 59.7 °F 30.1 in West 13 mph 15 mph 85% 0 in 272 W/m2
15:17 64 °F 59.7 °F 30.1 in West 6.9 mph 11 mph 86% 0 in 272 W/m2
15:22 63.9 °F 59.5 °F 30.1 in WNW 15 mph 15 mph 86% 0 in 165 W/m2
15:27 63.3 °F 59 °F 30.1 in WNW 6.9 mph 13 mph 86% 0 in 176 W/m2
15:32 63.1 °F 59.5 °F 30.1 in West 4 mph 7 mph 88% 0 in 239 W/m2
15:37 63.1 °F 59.2 °F 30.1 in West 8.9 mph 13 mph 87% 0 in 234 W/m2
15:42 63 °F 59 °F 30.1 in NW 2.9 mph 11 mph 87% 0 in 279 W/m2
15:47 63.1 °F 59.5 °F 30.1 in WSW 8.9 mph 9 mph 88% 0 in 257 W/m2
15:52 63.5 °F 59.5 °F 30.1 in West 4 mph 7 mph 87% 0 in 271 W/m2
15:57 63.7 °F 59.7 °F 30.1 in West 11 mph 13 mph 87% 0 in 287 W/m2
16:02 63.7 °F 59.4 °F 30.1 in WSW 2.9 mph 8 mph 86% 0 in 341 W/m2
16:07 63.7 °F 59.4 °F 30.1 in WNW 8.9 mph 13 mph 86% 0 in 383 W/m2
16:12 63.9 °F 59.5 °F 30.1 in West 6 mph 11 mph 86% 0 in 455 W/m2
16:17 64 °F 59.7 °F 30.1 in WNW 4.9 mph 9 mph 86% 0 in 564 W/m2
16:22 64.4 °F 59.7 °F 30.1 in West 6.9 mph 12 mph 85% 0 in 545 W/m2
16:27 64.6 °F 59.9 °F 30.1 in WNW 8.1 mph 12 mph 85% 0 in 260 W/m2
16:32 64.2 °F 59.4 °F 30.1 in West 6.9 mph 13 mph 84% 0 in 422 W/m2
16:37 64.2 °F 59.5 °F 30.1 in West 6.9 mph 11 mph 85% 0 in 726 W/m2
16:42 64.6 °F 59.7 °F 30.1 in West 8.9 mph 12 mph 84% 0 in 475 W/m2
16:47 64.8 °F 59.5 °F 30.1 in WSW 10.1 mph 16 mph 83% 0 in 432 W/m2
16:52 64.8 °F 59.9 °F 30.1 in NW 4.9 mph 12 mph 84% 0 in 1016 W/m2
16:57 65.1 °F 59.9 °F 30.1 in West 11 mph 16 mph 83% 0 in 775 W/m2
17:02 64.9 °F 59.7 °F 30.1 in NW 4.9 mph 11 mph 83% 0 in 352 W/m2
17:07 64.6 °F 59.4 °F 30.1 in WNW 4 mph 12 mph 83% 0 in 276 W/m2
17:12 64.4 °F 59.5 °F 30.1 in West 4 mph 9 mph 84% 0 in 316 W/m2
17:17 64.2 °F 59.4 °F 30.1 in West 4 mph 9 mph 84% 0 in 309 W/m2
17:22 64.6 °F 59.4 °F 30.1 in West 6 mph 9 mph 83% 0 in 288 W/m2
17:27 64.2 °F 59 °F 30.1 in WSW 8.1 mph 11 mph 83% 0 in 214 W/m2
17:32 64 °F 59.2 °F 30.1 in WSW 4.9 mph 12 mph 84% 0 in 380 W/m2
17:37 63.9 °F 59 °F 30.1 in West 6 mph 9 mph 84% 0 in 221 W/m2
17:42 63.7 °F 58.8 °F 30.1 in WSW 6.9 mph 9 mph 84% 0 in 139 W/m2
17:47 63.1 °F 58.3 °F 30.1 in NW 4.9 mph 12 mph 84% 0 in 123 W/m2
17:52 62.4 °F 57.9 °F 30.1 in West 6 mph 10 mph 85% 0 in 185 W/m2
17:57 62.2 °F 57.7 °F 30.1 in West 4 mph 12 mph 85% 0 in 151 W/m2
18:02 62.2 °F 57.9 °F 30.1 in West 6.9 mph 15 mph 86% 0 in 207 W/m2
18:07 62.2 °F 57.9 °F 30.1 in West 10.1 mph 10 mph 86% 0 in 243 W/m2
18:12 62.2 °F 57.9 °F 30.1 in WSW 6.9 mph 15 mph 86% 0 in 230 W/m2
18:17 62.2 °F 57.7 °F 30.1 in West 4 mph 11 mph 85% 0 in 199 W/m2
18:22 62.2 °F 57.9 °F 30.1 in NNW 4 mph 9 mph 86% 0 in 139 W/m2
18:27 62.1 °F 57.7 °F 30.1 in NNW 6 mph 10 mph 86% 0 in 113 W/m2
18:32 62.1 °F 57.7 °F 30.1 in WNW 4 mph 8 mph 86% 0 in 167 W/m2
18:37 62.1 °F 57.7 °F 30.1 in WSW 8.1 mph 9 mph 86% 0 in 188 W/m2
18:42 62.1 °F 57.7 °F 30.1 in WNW 6 mph 8 mph 86% 0 in 185 W/m2
18:47 62.1 °F 57.6 °F 30.1 in WNW 6.9 mph 8 mph 85% 0 in 151 W/m2
18:52 62.1 °F 57.6 °F 30.1 in WNW 2 mph 9 mph 85% 0 in 172 W/m2
18:57 61.7 °F 57.2 °F 30.1 in WNW 8.1 mph 11 mph 85% 0 in 142 W/m2
19:02 61.5 °F 57.4 °F 30.1 in WSW 8.1 mph 9 mph 86% 0 in 105 W/m2
19:07 61.3 °F 57.2 °F 30.1 in West 8.9 mph 10 mph 86% 0 in 111 W/m2
19:12 61.3 °F 57.2 °F 30.1 in West 4 mph 9 mph 86% 0 in 125 W/m2
19:17 61.2 °F 57 °F 30.1 in West 4 mph 10 mph 86% 0 in 88 W/m2
19:22 61.2 °F 57 °F 30.2 in WSW 2.9 mph 8 mph 86% 0 in 60 W/m2
19:27 61 °F 56.8 °F 30.1 in West 4 mph 8 mph 86% 0 in 32 W/m2
19:32 60.8 °F 56.8 °F 30.2 in WNW 4 mph 4 mph 87% 0 in 35 W/m2
19:37 60.6 °F 56.7 °F 30.2 in West 2 mph 7 mph 87% 0 in 47 W/m2
19:42 60.4 °F 56.8 °F 30.2 in WSW 4 mph 6 mph 88% 0 in 49 W/m2
19:47 60.3 °F 56.7 °F 30.2 in NW 4 mph 7 mph 88% 0 in 40 W/m2
19:52 60.1 °F 56.8 °F 30.2 in WSW 4 mph 5 mph 89% 0 in 44 W/m2
19:57 59.9 °F 56.7 °F 30.2 in West 6.9 mph 8 mph 89% 0 in 72 W/m2
20:02 59.5 °F 56.7 °F 30.2 in West 2 mph 7 mph 90% 0 in 60 W/m2
20:07 59.5 °F 56.8 °F 30.2 in West 4 mph 6 mph 91% 0 in 26 W/m2
20:12 59.4 °F 56.7 °F 30.2 in West 2 mph 6 mph 91% 0 in 14 W/m2
20:17 59.2 °F 56.5 °F 30.2 in WNW 2.9 mph 8 mph 91% 0 in 11 W/m2
20:22 59.2 °F 56.5 °F 30.2 in WNW 2.9 mph 5 mph 91% 0 in 9 W/m2
20:27 59.2 °F 56.5 °F 30.2 in West 6 mph 8 mph 91% 0 in 11 W/m2
20:32 59.2 °F 56.5 °F 30.2 in WNW 6 mph 7 mph 91% 0 in 9 W/m2
20:37 59.2 °F 56.5 °F 30.2 in WSW 4 mph 4 mph 91% 0 in 5 W/m2
20:42 59.2 °F 56.5 °F 30.2 in SW 4 mph 6 mph 91% 0 in 5 W/m2
20:47 59 °F 56.3 °F 30.2 in West 2.9 mph 8 mph 91% 0 in 5 W/m2
20:52 58.8 °F 56.1 °F 30.2 in WSW 2.9 mph 7 mph 91% 0 in 5 W/m2
20:57 59 °F 56.3 °F 30.2 in West 2.9 mph 8 mph 91% 0 in 7 W/m2
21:02 58.8 °F 56.1 °F 30.2 in WNW 0.9 mph 4 mph 91% 0 in 7 W/m2
21:07 58.8 °F 56.1 °F 30.2 in SW 4.9 mph 5 mph 91% 0 in 5 W/m2
21:12 58.8 °F 56.1 °F 30.2 in WNW 2.9 mph 9 mph 91% 0 in 0 W/m2
21:17 58.8 °F 56.1 °F 30.2 in WNW 2.9 mph 7 mph 91% 0 in 0 W/m2
21:22 59 °F 56.3 °F 30.2 in West 2.9 mph 9 mph 91% 0 in 0 W/m2
21:27 59 °F 56.3 °F 30.2 in West 2.9 mph 6 mph 91% 0 in 0 W/m2
21:32 59 °F 56.3 °F 30.2 in West 0.9 mph 6 mph 91% 0 in 0 W/m2
21:37 59 °F 56.3 °F 30.2 in WSW 2.9 mph 6 mph 91% 0 in 0 W/m2
21:42 59 °F 56.3 °F 30.2 in West 4 mph 6 mph 91% 0 in 0 W/m2
21:47 59.2 °F 56.5 °F 30.2 in WNW 4 mph 7 mph 91% 0 in 0 W/m2
21:52 59.2 °F 56.3 °F 30.2 in WNW 2.9 mph 8 mph 90% 0 in 0 W/m2
21:57 59.2 °F 56.3 °F 30.2 in WSW 4 mph 6 mph 90% 0 in 0 W/m2
22:02 59.2 °F 56.3 °F 30.2 in West 2.9 mph 8 mph 90% 0 in 0 W/m2
22:07 59.2 °F 56.3 °F 30.2 in WNW 2 mph 4 mph 90% 0 in 0 W/m2
22:12 59.2 °F 56.3 °F 30.2 in West 2.9 mph 4 mph 90% 0 in 0 W/m2
22:17 59.2 °F 56.3 °F 30.2 in West 2 mph 7 mph 90% 0 in 0 W/m2
22:22 59.4 °F 56.5 °F 30.2 in West 2.9 mph 6 mph 90% 0 in 0 W/m2
22:27 59.4 °F 56.5 °F 30.2 in NW 2.9 mph 7 mph 90% 0 in 0 W/m2
22:32 59.4 °F 56.5 °F 30.2 in WNW 2 mph 5 mph 90% 0 in 0 W/m2
22:37 59.4 °F 56.5 °F 30.2 in West 2.9 mph 4 mph 90% 0 in 0 W/m2
22:42 59.4 °F 56.5 °F 30.2 in West 2.9 mph 4 mph 90% 0 in 0 W/m2
22:47 59.4 °F 56.5 °F 30.2 in WNW 0.9 mph 4 mph 90% 0 in 0 W/m2
22:52 59.4 °F 56.5 °F 30.2 in WNW 2 mph 4 mph 90% 0 in 0 W/m2
22:57 59.4 °F 56.1 °F 30.2 in West 6 mph 6 mph 89% 0 in 0 W/m2
23:02 59.2 °F 56.3 °F 30.2 in WSW 2 mph 7 mph 90% 0 in 0 W/m2
23:07 59.2 °F 56.3 °F 30.2 in WSW 2.9 mph 4 mph 90% 0 in 0 W/m2
23:13 59.2 °F 56.3 °F 30.2 in WNW 2.9 mph 6 mph 90% 0 in 0 W/m2
23:18 59.2 °F 56.3 °F 30.2 in WSW 2 mph 3 mph 90% 0 in 0 W/m2
23:23 59.2 °F 56.3 °F 30.2 in West 2 mph 4 mph 90% 0 in 0 W/m2
23:28 59.2 °F 56.3 °F 30.2 in West 2.9 mph 3 mph 90% 0 in 0 W/m2
23:33 59 °F 56.1 °F 30.2 in WNW 2 mph 4 mph 90% 0 in 0 W/m2
23:38 59 °F 56.1 °F 30.2 in West 2 mph 3 mph 90% 0 in 0 W/m2
23:43 58.8 °F 55.9 °F 30.2 in West 2 mph 4 mph 90% 0 in 0 W/m2
23:48 58.8 °F 55.9 °F 30.2 in WNW 0.9 mph 4 mph 90% 0 in 0 W/m2
23:53 58.8 °F 55.9 °F 30.2 in West 4 mph 4 mph 90% 0 in 0 W/m2
23:58 58.8 °F 55.9 °F 30.2 in WSW 4.9 mph 8 mph 90% 0 in 0 W/m2
Juneau County Weather
Compliments of Weather Underground - 4 mb